Detall de PIREP

Printer-friendly versionPDF version

[2015/05/09 15:20:00]
Flight IATA:CT1061
Pilot Number:042
Company ICAO:CAT
Aircraft Type:A320/E
PAX:106
Departing Airport: LEAL
Destination Airport: LICJ
Alternate Airport:LICB
Online: VATSIM
Route:MITOS UN851 MHN ARSIK UM731 TEKSA UM732 CAR UM871 KAPIL
Flight Level:F350
No Slew and time accel
No pause
Crash detect
Detect pilot in Cockpit between each 30 and 45 minutes
15:20 Zero fuel Weight: 127542 Lbs, Fuel Weight: 5335 Lbs
15:20 VATSIM:LEAL 091500Z 08010KT 030V120 9999 SCT008 22/17 Q1023 NOSIG
15:20 VATSIM:LICJ 091450Z 29010KT 9999 FEW018 20/16 Q1017
15:42 Parking Brakes off
15:50 Take-off
15:50 Take off Weight: 124840 Lbs
15:50 Wind: 073º @ 010 Knots Heading: 101º
15:50 POS N38º 16´ 42´´ W000º 31´ 14´´
15:50 Gear Up: 106 Knots
15:50 Flaps:3 at 106 Knots
15:51 Flaps:2 at 145 Knots
15:51 Flaps:0 at 180 Knots
16:03 TOC
16:03 Fuel Weight: 12379 Lb
16:05 Wind:291º@073 Knots Heading: 062º Ground Speed: 521 Knots Altitude 35669 ft
16:18 TOD
16:18 Fuel Weight: 11415 Lb
16:20 Wind:296º@092 Knots Heading: 044º Ground Speed: 343 Knots Altitude 34117 ft
16:24 TOC
16:24 Fuel Weight: 10997 Lb
16:35 Wind:293º@092 Knots Heading: 068º Ground Speed: 508 Knots Altitude 35255 ft
16:50 Wind:293º@046 Knots Heading: 098º Ground Speed: 484 Knots Altitude 35190 ft
17:04 TOD
17:04 Fuel Weight: 7803 Lb
17:05 Wind:296º@078 Knots Heading: 108º Ground Speed: 520 Knots Altitude 34399 ft
17:20 Wind:317º@048 Knots Heading: 100º Ground Speed: 490 Knots Altitude 21830 ft
17:21 Flaps:1 at 343 Knots
17:21 Flaps:0 at 339 Knots
17:24 Flaps:1 at 187 Knots
17:35 Wind:315º@012 Knots Heading: 085º Ground Speed: 207 Knots Altitude 2985 ft
17:43 Gear Down: 191 Knots
17:43 Flaps:4 at 191 Knots
17:43 Flaps:3 at 188 Knots
17:45 Flaps:4 at 125 Knots
17:46 Flaps:5 at 131 Knots
17:46 TouchDown:Rate -592 ft/min Speed: 113 Knots
17:47 VATSIM:LICJ 091720Z 29005KT 9999 FEW018 SCT025 20/16 Q1018
17:47 Land
17:47 Wind:290º@005 Knots
17:47 Heading: 239º
17:47 Flight Duration: 01:57
17:47 Landing Weight: 114851 Lbs
17:47 POS N38º 10´ 33´´ E013º 05´ 22´´
17:51 Parking brakes on
17:51 Block to Block Duration: 02:09
17:51 Final Fuel: 4515 Lbls
17:51 Spent Fuel: 820 Lbls
17:51 Flight Length: 789 NM
17:51 TOD Land Length: 235 NM

Exportar CSV

Powered by Drupal - Modified by Danger4k